createdAt,value
2022-10-12T00:04:10.703Z,101996.22
2022-10-12T00:09:12.411Z,102006.47
2022-10-12T00:14:14.019Z,102010.47
2022-10-12T00:19:15.637Z,102017.06
2022-10-12T00:24:17.293Z,102019.47
2022-10-12T00:29:18.986Z,102014.94
2022-10-12T00:34:20.656Z,102011.41
2022-10-12T00:39:22.334Z,102011.34
2022-10-12T00:44:53.603Z,102014.59
2022-10-12T00:50:16.326Z,102019.47
2022-10-12T00:55:18.770Z,102022.63
2022-10-12T01:00:20.873Z,102025.72
2022-10-12T01:05:22.732Z,102028.84
2022-10-12T01:10:24.339Z,102025.22
2022-10-12T01:15:29.291Z,102023.28
2022-10-12T01:20:57.671Z,102016.25
2022-10-12T01:26:37.191Z,102024.75
2022-10-12T01:31:44.802Z,102015.22
2022-10-12T01:36:49.195Z,102016.59
2022-10-12T01:41:58.634Z,102012.88
2022-10-12T01:47:01.694Z,101998.81
2022-10-12T01:52:28.851Z,102002.78
2022-10-12T01:57:46.734Z,102003.47
2022-10-12T02:02:54.063Z,101999.81
2022-10-12T02:08:08.000Z,102000.31
2022-10-12T02:13:11.038Z,101991.28
2022-10-12T02:18:13.478Z,101998.16
2022-10-12T02:23:15.205Z,101985.72
2022-10-12T02:28:17.190Z,101983.63
2022-10-12T02:33:29.539Z,101981.50
2022-10-12T02:38:36.520Z,101975.31
2022-10-12T02:43:40.042Z,101972.47
2022-10-12T02:48:41.743Z,101967.16
2022-10-12T02:53:45.097Z,101967.97
2022-10-12T02:58:46.822Z,101967.72
2022-10-12T03:03:48.556Z,101959.72
2022-10-12T03:08:50.185Z,101956.88
2022-10-12T03:13:52.842Z,101961.16
2022-10-12T03:18:54.502Z,101964.16
2022-10-12T03:23:56.175Z,101959.47
2022-10-12T03:28:57.899Z,101954.06
2022-10-12T03:33:59.621Z,101956.31
2022-10-12T03:39:01.259Z,101943.94
2022-10-12T03:44:03.203Z,101949.03
2022-10-12T03:49:04.870Z,101945.31
2022-10-12T03:54:06.474Z,101939.66
2022-10-12T03:59:08.107Z,101930.16
2022-10-12T04:04:10.654Z,101937.81
2022-10-12T04:09:12.262Z,101941.28
2022-10-12T04:14:13.927Z,101946.44
2022-10-12T04:19:15.559Z,101945.56
2022-10-12T04:24:17.241Z,101947.94
2022-10-12T04:29:18.900Z,101941.75
2022-10-12T04:34:20.557Z,101946.19
2022-10-12T04:39:22.228Z,101940.22
2022-10-12T04:44:27.291Z,101936.66
2022-10-12T04:49:31.465Z,101938.34
2022-10-12T04:54:33.599Z,101941.63
2022-10-12T04:59:35.244Z,101943.06
2022-10-12T05:04:36.926Z,101936.78
2022-10-12T05:09:38.620Z,101941.06
2022-10-12T05:14:40.300Z,101934.03
2022-10-12T05:19:41.916Z,101937.41
2022-10-12T05:24:43.557Z,101929.59
2022-10-12T05:29:45.251Z,101934.56
2022-10-12T05:34:46.970Z,101924.91
2022-10-12T05:39:49.840Z,101927.38
2022-10-12T05:44:51.492Z,101932.38
2022-10-12T05:49:53.129Z,101931.50
2022-10-12T05:54:54.836Z,101923.03
2022-10-12T05:59:56.495Z,101924.78
2022-10-12T06:04:58.145Z,101919.63
2022-10-12T06:10:00.282Z,101918.66
2022-10-12T06:15:01.990Z,101931.66
2022-10-12T06:20:05.661Z,101927.63
2022-10-12T06:25:07.601Z,101923.78
2022-10-12T06:30:09.539Z,101928.72
2022-10-12T06:35:11.184Z,101929.06
2022-10-12T06:40:12.875Z,101920.03
2022-10-12T06:45:14.615Z,101920.81
2022-10-12T06:50:16.331Z,101926.53
2022-10-12T06:55:18.030Z,101927.94
2022-10-12T07:00:19.743Z,101931.72
2022-10-12T07:05:22.816Z,101926.38
2022-10-12T07:10:25.140Z,101925.16
2022-10-12T07:15:26.834Z,101930.16
2022-10-12T07:20:28.457Z,101922.13
2022-10-12T07:25:30.562Z,101923.63
2022-10-12T07:30:32.638Z,101925.13
2022-10-12T07:35:34.295Z,101925.16
2022-10-12T07:40:35.960Z,101923.47
2022-10-12T07:45:37.704Z,101937.22
2022-10-12T07:50:39.829Z,101931.00
2022-10-12T07:55:41.455Z,101931.72
2022-10-12T08:00:43.073Z,101926.44
2022-10-12T08:05:44.719Z,101934.84
2022-10-12T08:10:46.394Z,101925.16
2022-10-12T08:15:51.146Z,101924.91
2022-10-12T08:20:52.762Z,101921.34
2022-10-12T08:25:58.011Z,101923.91
2022-10-12T08:30:59.658Z,101927.34
2022-10-12T08:36:03.205Z,101928.19
2022-10-12T08:41:28.451Z,101913.66
2022-10-12T08:46:30.097Z,101921.47
2022-10-12T08:51:35.670Z,101926.72
2022-10-12T08:56:40.132Z,101923.69
2022-10-12T09:02:14.105Z,101914.63
2022-10-12T09:07:17.836Z,101910.44
2022-10-12T09:12:29.479Z,101906.72
2022-10-12T09:17:39.420Z,101908.13
2022-10-12T09:22:41.913Z,101916.84
2022-10-12T09:27:45.941Z,101910.66
2022-10-12T09:33:29.255Z,101913.63
2022-10-12T09:38:30.928Z,101906.31
2022-10-12T09:43:32.582Z,101907.00
2022-10-12T09:48:34.309Z,101895.38
2022-10-12T09:53:43.567Z,101890.78
2022-10-12T09:59:04.446Z,101886.44
2022-10-12T10:04:17.733Z,101886.91
2022-10-12T10:09:32.987Z,101883.00
2022-10-12T10:14:35.558Z,101883.50
2022-10-12T10:19:37.291Z,101880.25
2022-10-12T10:24:38.902Z,101883.28
2022-10-12T10:29:41.744Z,101880.09
2022-10-12T10:34:43.475Z,101875.00
2022-10-12T10:39:46.570Z,101870.88
2022-10-12T10:44:52.438Z,101852.16
2022-10-12T10:50:24.564Z,101852.66
2022-10-12T10:55:42.266Z,101852.75
2022-10-12T11:00:44.528Z,101838.09
2022-10-12T11:05:49.577Z,101832.94
2022-10-12T11:11:07.765Z,101840.13
2022-10-12T11:16:32.461Z,101827.22
2022-10-12T11:21:47.616Z,101826.56
2022-10-12T11:26:57.023Z,101814.47
2022-10-12T11:32:07.639Z,101817.28
2022-10-12T11:37:21.076Z,101806.09
2022-10-12T11:42:43.209Z,101799.22
2022-10-12T11:47:47.241Z,101789.69
2022-10-12T11:52:49.415Z,101788.09
2022-10-12T11:57:51.139Z,101783.88
2022-10-12T12:03:02.516Z,101783.25
2022-10-12T12:08:04.200Z,101780.94
2022-10-12T12:13:12.966Z,101778.53
2022-10-12T12:18:17.083Z,101763.84
2022-10-12T12:23:22.236Z,101757.78
2022-10-12T12:28:24.003Z,101742.84
2022-10-12T12:33:31.018Z,101749.78
2022-10-12T12:38:40.238Z,101739.03
2022-10-12T12:43:44.865Z,101723.75
2022-10-12T12:48:46.521Z,101732.13
2022-10-12T12:54:12.297Z,101717.72
2022-10-12T12:59:33.568Z,101714.69
2022-10-12T13:04:44.103Z,101708.34
2022-10-12T13:10:08.245Z,101702.19
2022-10-12T13:15:27.105Z,101692.19
2022-10-12T13:20:30.894Z,101690.91
2022-10-12T13:25:51.521Z,101691.41
2022-10-12T13:31:09.358Z,101695.38
2022-10-12T13:36:24.267Z,101683.53
2022-10-12T13:41:26.950Z,101675.09
2022-10-12T13:46:52.099Z,101670.28
2022-10-12T13:51:55.023Z,101666.34
2022-10-12T13:56:59.160Z,101663.47
2022-10-12T14:02:01.570Z,101656.59
2022-10-12T14:07:05.698Z,101651.47
2022-10-12T14:12:07.714Z,101653.53
2022-10-12T14:17:17.193Z,101642.69
2022-10-12T14:22:27.832Z,101644.06
2022-10-12T14:27:29.460Z,101638.56
2022-10-12T14:32:37.683Z,101627.88
2022-10-12T14:37:39.383Z,101622.31
2022-10-12T14:42:41.012Z,101621.72
2022-10-12T14:47:42.880Z,101621.22
2022-10-12T14:52:46.285Z,101613.56
2022-10-12T14:57:48.052Z,101620.81
2022-10-12T15:02:49.871Z,101620.06
2022-10-12T15:07:51.620Z,101616.69
2022-10-12T15:12:53.375Z,101622.94
2022-10-12T15:17:55.049Z,101602.84
2022-10-12T15:22:57.715Z,101598.56
2022-10-12T15:27:59.356Z,101595.16
2022-10-12T15:33:00.998Z,101591.72
2022-10-12T15:38:02.923Z,101578.63
2022-10-12T15:43:04.587Z,101575.19
2022-10-12T15:48:07.146Z,101572.59
2022-10-12T15:53:10.657Z,101560.28
2022-10-12T15:58:12.492Z,101562.94
2022-10-12T16:03:15.917Z,101557.63
2022-10-12T16:08:17.555Z,101561.97
2022-10-12T16:13:19.311Z,101556.69
2022-10-12T16:18:20.995Z,101558.41
2022-10-12T16:23:27.839Z,101558.31
2022-10-12T16:28:29.517Z,101557.34
2022-10-12T16:33:31.264Z,101550.22
2022-10-12T16:38:32.932Z,101548.34
2022-10-12T16:43:34.593Z,101554.34
2022-10-12T16:48:36.469Z,101547.16
2022-10-12T16:53:38.386Z,101549.63
2022-10-12T16:58:40.034Z,101552.94
2022-10-12T17:03:41.675Z,101551.00
2022-10-12T17:08:43.338Z,101549.91
2022-10-12T17:13:48.970Z,101557.56
2022-10-12T17:18:54.492Z,101557.34
2022-10-12T17:23:59.172Z,101548.34
2022-10-12T17:29:00.849Z,101550.78
2022-10-12T17:34:02.486Z,101547.91
2022-10-12T17:39:04.174Z,101538.09
2022-10-12T17:44:05.919Z,101541.38
2022-10-12T17:49:08.216Z,101546.34
2022-10-12T17:54:09.900Z,101540.81
2022-10-12T17:59:14.050Z,101538.81
2022-10-12T18:04:15.714Z,101546.44
2022-10-12T18:09:17.455Z,101547.00
2022-10-12T18:14:19.175Z,101540.59
2022-10-12T18:19:20.808Z,101539.38
2022-10-12T18:24:23.209Z,101530.38
2022-10-12T18:29:24.916Z,101529.25
2022-10-12T18:34:26.783Z,101524.56
2022-10-12T18:39:28.427Z,101519.97
2022-10-12T18:44:30.069Z,101516.22
2022-10-12T18:49:31.775Z,101520.31
2022-10-12T18:54:33.510Z,101527.97
2022-10-12T18:59:36.134Z,101524.28
2022-10-12T19:04:37.829Z,101537.16
2022-10-12T19:09:39.471Z,101528.25
2022-10-12T19:14:41.144Z,101528.88
2022-10-12T19:19:42.810Z,101522.59
2022-10-12T19:24:44.432Z,101521.56
2022-10-12T19:29:46.123Z,101514.38
2022-10-12T19:34:50.882Z,101517.53
2022-10-12T19:39:52.585Z,101525.03
2022-10-12T19:44:54.293Z,101526.50
2022-10-12T19:49:55.975Z,101522.78
2022-10-12T19:54:57.598Z,101513.84
2022-10-12T19:59:59.236Z,101509.28
2022-10-12T20:05:00.903Z,101517.69
2022-10-12T20:10:02.540Z,101514.84
2022-10-12T20:15:04.645Z,101518.94
2022-10-12T20:20:06.506Z,101523.06
2022-10-12T20:25:09.786Z,101515.00
2022-10-12T20:30:11.998Z,101511.25
2022-10-12T20:35:13.714Z,101512.78
2022-10-12T20:40:15.371Z,101506.53
2022-10-12T20:45:17.125Z,101503.69
2022-10-12T20:50:18.841Z,101493.88
2022-10-12T20:55:20.814Z,101510.13
2022-10-12T21:00:22.448Z,101507.31
2022-10-12T21:05:24.172Z,101485.50
2022-10-12T21:10:25.868Z,101484.44
2022-10-12T21:15:27.504Z,101484.31
2022-10-12T21:20:29.140Z,101483.31
2022-10-12T21:25:30.763Z,101479.63
2022-10-12T21:30:32.488Z,101488.22
2022-10-12T21:35:34.700Z,101483.78
2022-10-12T21:40:36.540Z,101486.34
2022-10-12T21:45:38.160Z,101483.72
2022-10-12T21:50:39.807Z,101483.59
2022-10-12T21:55:41.454Z,101470.59
2022-10-12T22:00:43.173Z,101471.44
2022-10-12T22:05:44.864Z,101465.34
2022-10-12T22:10:46.529Z,101458.44
2022-10-12T22:15:48.169Z,101456.63
2022-10-12T22:20:49.765Z,101456.63
2022-10-12T22:25:51.452Z,101443.56
2022-10-12T22:30:53.086Z,101440.97
2022-10-12T22:35:55.394Z,101443.56
2022-10-12T22:40:58.298Z,101446.13
2022-10-12T22:46:00.091Z,101444.44
2022-10-12T22:51:01.829Z,101441.97
2022-10-12T22:56:07.951Z,101442.84
2022-10-12T23:01:13.520Z,101436.72
2022-10-12T23:06:15.865Z,101440.13
2022-10-12T23:11:19.875Z,101427.94
2022-10-12T23:16:26.245Z,101430.50
2022-10-12T23:21:28.469Z,101425.19
2022-10-12T23:26:30.158Z,101424.31
2022-10-12T23:31:32.220Z,101421.69
2022-10-12T23:36:35.083Z,101420.66
2022-10-12T23:41:36.711Z,101419.75
2022-10-12T23:46:38.365Z,101419.69
2022-10-12T23:51:39.977Z,101420.44
2022-10-12T23:56:41.672Z,101431.63
